Página principal
METAR-TAF:

METAR-TAF

Aeroportos :

Tete, Moçambique

latitude: 16-06S, longitude: 033-38E, altura: 160 m

Observação actual do tempo

O boletim foi feito há 44 minutos, às 11:00 UTC
Vento 10 kt de sudeste, variando entre este e sul
Temperatura 27°C
Humidade 42%
Pressão 1023 hPa
Visibilidade 10 km ou mais
Nuvens fragmentadasa uma altura de 2000 ft

METAR: FQTT 231100Z 14010KT 100V170 9999 BKN020 27/13 Q1023

Hora: 13:44 (11:44 UTC)

Previsão

O boletim foi feito há 1 hora e 44 minutos, às 10:00 UTC
Previsão válida de 23 às 12 UTC a 24 às 12 UTC
Vento 12 kt de sudeste com rajadas de 22 kt
Visibilidade 10 km ou mais
Poucas nuvensa uma altura de 2000 ft
Tornando-se
de 23 às 19 UTC a 23 às 21 UTC
Vento 10 kt de su-sudeste

TAF: FQTT 231000Z 2312/2412 14012G22KT 9999 FEW020 TX29/2313Z TN19/2402Z BECMG 2319/2321 15010KT

Observações e previsões do tempo de mais de 4000 aeroportos (mensagens METAR e TAF).

As estações disponíveis são os pontos amarelos e vermelhos sobre o mapa.

Mova o rato sobre o mapa para ver o nome da estação.

Depois clique no ponto para visualizar as observações e previsões meteorológicas.

Para alterar o mapa : clique nos botões verdes com uma cruz preta para aumentar o zoom; no botão verde com uma pitada de zoom; ou nas setas verdes para mapas adjacentes.


METAR-TAF: